Time;durP1;ratioP1;P1;durP2;ratioP2;P2;SDS_P1;SDS_P2;PMS_P1;PMS_P2;Temp;Humidity;BMP_temperature;BMP_pressure;BME280_temperature;BME280_humidity;BME280_pressure;Samples;Min_cycle;Max_cycle;Signal;HPM_P1;HPM_P2
2021/01/08 00:02:23;;;;;;;14.23;8.50;;;;;;;0.11;100.00;100825.03;5040435;28;20037;-51
2021/01/08 00:04:50;;;;;;;15.05;7.75;;;;;;;0.23;100.00;100826.06;5048721;28;20060;-55
2021/01/08 00:07:17;;;;;;;17.33;7.35;;;;;;;0.17;100.00;100825.53;5048450;28;20041;-54
2021/01/08 00:09:45;;;;;;;14.27;8.73;;;;;;;0.16;100.00;100823.00;5042812;28;20052;-53
2021/01/08 00:12:12;;;;;;;16.92;8.18;;;;;;;0.09;100.00;100824.31;5043066;28;20136;-53
2021/01/08 00:14:39;;;;;;;15.57;8.15;;;;;;;0.07;100.00;100831.44;5044965;28;20318;-54
2021/01/08 00:17:07;;;;;;;18.92;9.27;;;;;;;0.09;100.00;100825.16;5043051;28;20090;-53
2021/01/08 00:19:34;;;;;;;18.58;8.27;;;;;;;0.10;100.00;100821.59;5048074;28;20379;-54
2021/01/08 00:22:01;;;;;;;17.58;8.68;;;;;;;0.08;100.00;100826.06;5043156;28;20124;-53
2021/01/08 00:24:27;;;;;;;18.33;8.40;;;;;;;0.03;100.00;100822.03;5042927;28;20067;-51
2021/01/08 00:27:02;;;;;;;17.95;8.13;;;;;;;0.02;100.00;100823.84;5047388;28;20040;-53
2021/01/08 00:29:30;;;;;;;16.97;8.43;;;;;;;0.08;100.00;100822.63;5045436;28;21150;-53
2021/01/08 00:31:58;;;;;;;18.10;8.57;;;;;;;0.06;100.00;100819.22;5043842;28;20195;-49
2021/01/08 00:34:25;;;;;;;18.27;8.98;;;;;;;0.06;100.00;100827.97;5045362;28;20601;-51
2021/01/08 00:36:53;;;;;;;17.90;9.05;;;;;;;0.04;100.00;100818.50;5046379;28;20340;-53
2021/01/08 00:39:25;;;;;;;21.85;9.55;;;;;;;0.06;100.00;100819.22;5044833;28;20050;-51
2021/01/08 00:41:52;;;;;;;17.25;8.95;;;;;;;0.10;100.00;100825.97;5042647;28;20041;-51
2021/01/08 00:44:20;;;;;;;24.20;10.32;;;;;;;0.08;100.00;100827.88;5042401;28;20053;-51
2021/01/08 00:46:49;;;;;;;21.33;10.85;;;;;;;0.08;100.00;100830.50;5043592;28;20406;-53
2021/01/08 00:49:17;;;;;;;18.67;9.18;;;;;;;0.13;100.00;100831.06;5046114;28;20129;-52
2021/01/08 00:51:44;;;;;;;25.38;10.73;;;;;;;0.09;100.00;100826.94;5040095;28;20041;-53
2021/01/08 00:54:11;;;;;;;19.45;10.35;;;;;;;0.09;100.00;100825.16;5047949;28;20142;-54
2021/01/08 00:56:38;;;;;;;23.20;10.65;;;;;;;0.10;100.00;100818.97;5047090;28;20041;-55
2021/01/08 00:59:05;;;;;;;22.10;10.23;;;;;;;0.04;100.00;100816.69;5046902;28;20037;-53
2021/01/08 01:01:33;;;;;;;19.27;10.13;;;;;;;0.08;100.00;100820.81;5046076;28;20349;-54
2021/01/08 01:04:00;;;;;;;23.17;10.90;;;;;;;0.08;100.00;100825.25;5037591;28;20422;-53
2021/01/08 01:06:28;;;;;;;17.75;9.43;;;;;;;0.03;100.00;100822.91;5044866;28;20064;-51
2021/01/08 01:08:56;;;;;;;21.20;10.77;;;;;;;-0.03;100.00;100826.75;5045087;28;20069;-53
2021/01/08 01:11:24;;;;;;;22.05;10.63;;;;;;;0.03;100.00;100824.66;5039871;28;20108;-54
2021/01/08 01:13:54;;;;;;;25.25;11.57;;;;;;;-0.09;100.00;100826.28;5043572;28;20056;-53
2021/01/08 01:16:21;;;;;;;20.95;9.27;;;;;;;0.05;100.00;100828.91;5044206;28;20043;-52
2021/01/08 01:18:51;;;;;;;19.23;9.95;;;;;;;0.10;100.00;100820.72;5042500;28;20136;-50
2021/01/08 01:21:19;;;;;;;19.73;9.90;;;;;;;0.07;100.00;100823.53;5041004;28;20048;-51
2021/01/08 01:23:46;;;;;;;20.08;11.05;;;;;;;-0.04;100.00;100819.81;5046523;28;20041;-54
2021/01/08 01:26:13;;;;;;;23.13;11.48;;;;;;;-0.05;100.00;100820.75;5042952;28;20041;-49
2021/01/08 01:28:40;;;;;;;26.13;11.32;;;;;;;0.02;100.00;100823.00;5044066;28;20453;-51
2021/01/08 01:31:07;;;;;;;20.00;11.43;;;;;;;0.06;100.00;100825.34;5041098;28;20079;-51
2021/01/08 01:33:34;;;;;;;21.63;10.43;;;;;;;0.08;100.00;100823.44;5042027;28;20389;-54
2021/01/08 01:36:06;;;;;;;26.23;11.77;;;;;;;-0.02;100.00;100817.09;5046280;28;20502;-51
2021/01/08 01:38:33;;;;;;;26.77;11.50;;;;;;;0.08;100.00;100817.38;5043652;28;20048;-48
2021/01/08 01:41:01;;;;;;;19.83;10.70;;;;;;;0.06;100.00;100819.22;5038839;28;20052;-52
2021/01/08 01:43:27;;;;;;;24.00;12.02;;;;;;;-0.02;100.00;100817.91;5043024;28;20310;-51
2021/01/08 01:45:55;;;;;;;24.23;12.50;;;;;;;0.02;100.00;100818.59;5039948;28;20066;-53
2021/01/08 01:48:22;;;;;;;23.50;12.07;;;;;;;0.06;100.00;100825.34;5044018;28;20041;-51
2021/01/08 01:50:49;;;;;;;23.30;13.00;;;;;;;0.02;100.00;100820.38;5041213;28;20052;-53
2021/01/08 01:53:17;;;;;;;32.05;13.75;;;;;;;-0.07;100.00;100827.00;5044060;28;20350;-53
2021/01/08 01:55:44;;;;;;;28.50;14.20;;;;;;;-0.02;100.00;100828.41;5044597;28;20342;-54
2021/01/08 01:58:11;;;;;;;23.23;12.20;;;;;;;0.03;100.00;100827.28;5040926;28;20353;-53
2021/01/08 02:00:39;;;;;;;25.63;11.73;;;;;;;0.10;100.00;100837.34;5039732;28;20045;-53
2021/01/08 02:03:10;;;;;;;22.85;13.10;;;;;;;0.07;100.00;100831.44;5043746;28;20144;-52
2021/01/08 02:05:37;;;;;;;25.30;12.38;;;;;;;0.07;100.00;100837.53;5042296;28;20045;-53
2021/01/08 02:08:08;;;;;;;26.30;12.77;;;;;;;0.08;100.00;100836.56;5038445;28;20041;-53
2021/01/08 02:10:39;;;;;;;26.85;11.80;;;;;;;0.05;100.00;100834.16;5042922;28;20052;-52
2021/01/08 02:13:10;;;;;;;29.92;13.60;;;;;;;0.02;100.00;100836.97;5043635;28;20048;-53
2021/01/08 02:15:37;;;;;;;30.67;12.52;;;;;;;0.07;100.00;100834.03;5041045;28;20047;-52
2021/01/08 02:18:05;;;;;;;25.75;13.13;;;;;;;-0.02;100.00;100843.34;5041949;28;20045;-52
2021/01/08 02:20:33;;;;;;;27.70;14.82;;;;;;;-0.05;100.00;100839.13;5043264;28;20045;-53
2021/01/08 02:23:04;;;;;;;30.85;14.68;;;;;;;-0.02;100.00;100841.56;5044723;28;20041;-52
2021/01/08 02:25:33;;;;;;;29.10;13.95;;;;;;;-0.06;100.00;100832.19;5038370;28;20037;-50
2021/01/08 02:28:19;;;;;;;30.63;12.88;;;;;;;-0.01;100.00;100837.16;5044099;28;20041;-52
2021/01/08 02:30:46;;;;;;;26.38;14.18;;;;;;;-0.11;100.00;100844.75;5047092;28;20074;-54
2021/01/08 02:33:14;;;;;;;27.73;15.75;;;;;;;-0.04;100.00;100840.81;5044243;28;20285;-54
2021/01/08 02:35:43;;;;;;;23.15;12.65;;;;;;;-0.03;100.00;100833.78;5042640;28;20037;-52
2021/01/08 02:38:13;;;;;;;25.88;13.13;;;;;;;0.03;100.00;100841.28;5047441;28;20449;-54
2021/01/08 02:40:44;;;;;;;26.88;14.55;;;;;;;0.01;100.00;100843.16;5045980;28;20330;-50
2021/01/08 02:43:12;;;;;;;27.38;14.15;;;;;;;0.02;100.00;100841.38;5045563;28;20436;-53
2021/01/08 02:45:39;;;;;;;30.85;13.38;;;;;;;-0.02;100.00;100841.56;5048590;28;20041;-54
2021/01/08 02:48:07;;;;;;;25.30;12.90;;;;;;;0.08;100.00;100848.88;5047582;28;20698;-52
2021/01/08 02:50:34;;;;;;;29.35;13.80;;;;;;;0.02;100.00;100844.00;5046640;28;20072;-53
2021/01/08 02:53:04;;;;;;;28.20;13.05;;;;;;;0.02;100.00;100844.00;5049446;28;20045;-54
2021/01/08 02:55:32;;;;;;;26.65;13.15;;;;;;;0.06;100.00;100848.09;5046839;28;20369;-53
2021/01/08 02:58:01;;;;;;;26.92;14.40;;;;;;;-0.02;100.00;100849.44;5042903;28;20037;-53
2021/01/08 03:00:29;;;;;;;22.80;12.75;;;;;;;0.03;100.00;100840.44;5043651;28;20051;-51
2021/01/08 03:02:56;;;;;;;24.73;14.35;;;;;;;0.02;100.00;100846.63;5041980;28;20048;-54
2021/01/08 03:05:23;;;;;;;25.10;12.48;;;;;;;0.07;100.00;100845.41;5044867;28;20048;-54
2021/01/08 03:07:52;;;;;;;25.27;12.30;;;;;;;0.11;100.00;100843.44;5041965;28;20045;-53
2021/01/08 03:10:19;;;;;;;32.72;13.40;;;;;;;-0.01;100.00;100838.00;5037318;28;20107;-54
2021/01/08 03:12:53;;;;;;;28.58;13.90;;;;;;;-0.03;100.00;100839.88;5044735;28;20052;-55
2021/01/08 03:15:21;;;;;;;21.50;12.43;;;;;;;0.02;100.00;100846.63;5049605;28;20047;-53
2021/01/08 03:17:48;;;;;;;22.98;13.57;;;;;;;0.00;100.00;100846.72;5044136;28;20511;-51
2021/01/08 03:20:15;;;;;;;27.13;13.82;;;;;;;-0.10;100.00;100843.81;5043561;28;20048;-50
2021/01/08 03:22:42;;;;;;;28.65;14.43;;;;;;;-0.17;100.00;100839.88;5049651;28;20052;-53
2021/01/08 03:25:12;;;;;;;24.23;13.80;;;;;;;-0.20;100.00;100845.31;5047803;28;20048;-54
2021/01/08 03:27:39;;;;;;;27.45;13.27;;;;;;;-0.29;100.00;100833.59;5045513;28;20051;-52
2021/01/08 03:30:08;;;;;;;25.50;12.85;;;;;;;-0.21;100.00;100827.88;5046882;28;20049;-53
2021/01/08 03:32:37;;;;;;;26.20;14.52;;;;;;;-0.24;100.00;100826.28;5039576;28;20432;-51
2021/01/08 03:35:05;;;;;;;22.45;14.10;;;;;;;-0.35;100.00;100832.16;5042833;28;20045;-54
2021/01/08 03:37:32;;;;;;;29.20;13.90;;;;;;;-0.27;100.00;100836.09;5042016;28;20484;-51
2021/01/08 03:39:59;;;;;;;28.08;13.23;;;;;;;-0.37;100.00;100828.81;5047623;28;20040;-52
2021/01/08 03:42:26;;;;;;;24.17;12.68;;;;;;;-0.41;100.00;100831.69;5046197;28;20654;-50
2021/01/08 03:44:53;;;;;;;26.02;12.02;;;;;;;-0.39;100.00;100835.91;5044508;28;20044;-53
2021/01/08 03:47:23;;;;;;;27.73;12.55;;;;;;;-0.44;100.00;100832.75;5047916;28;20503;-54
2021/01/08 03:49:50;;;;;;;27.75;14.70;;;;;;;-0.43;100.00;100833.56;5047950;28;20052;-54
2021/01/08 03:52:18;;;;;;;22.95;12.85;;;;;;;-0.54;100.00;100837.69;5042630;28;20526;-53
2021/01/08 03:54:44;;;;;;;23.70;12.05;;;;;;;-0.60;100.00;100837.19;5047594;28;20053;-53
2021/01/08 03:57:13;;;;;;;26.63;12.88;;;;;;;-0.59;100.00;100831.84;5044041;28;20055;-53
2021/01/08 03:59:39;;;;;;;27.23;14.23;;;;;;;-0.57;100.00;100830.00;5043542;28;20345;-53
2021/01/08 04:02:07;;;;;;;29.80;15.40;;;;;;;-0.53;100.00;100835.91;5038579;28;20067;-49
2021/01/08 04:04:34;;;;;;;36.03;16.10;;;;;;;-0.59;100.00;100829.22;5041004;28;20048;-51
2021/01/08 04:07:02;;;;;;;31.20;13.52;;;;;;;-0.58;100.00;100832.69;5041076;28;20052;-54
2021/01/08 04:09:29;;;;;;;35.70;14.25;;;;;;;-0.63;100.00;100832.13;5041752;28;20049;-51
2021/01/08 04:11:58;;;;;;;34.25;14.43;;;;;;;-0.57;100.00;100837.88;5039439;28;20047;-52
2021/01/08 04:14:25;;;;;;;35.83;14.10;;;;;;;-0.47;100.00;100832.91;5039714;28;20036;-53
2021/01/08 04:16:51;;;;;;;32.58;17.52;;;;;;;-0.60;100.00;100832.78;5039807;28;20326;-55
2021/01/08 04:19:19;;;;;;;33.53;16.17;;;;;;;-0.46;100.00;100842.47;5045238;28;20048;-53
2021/01/08 04:21:46;;;;;;;34.97;15.82;;;;;;;-0.41;100.00;100836.94;5040862;28;20068;-53
2021/01/08 04:24:14;;;;;;;27.10;13.40;;;;;;;-0.44;100.00;100838.00;5048511;28;20047;-54
2021/01/08 04:26:41;;;;;;;30.77;14.90;;;;;;;-0.39;100.00;100835.06;5045811;28;20044;-52
2021/01/08 04:29:08;;;;;;;30.15;14.77;;;;;;;-0.37;100.00;100838.44;5044996;28;20120;-52
2021/01/08 04:31:35;;;;;;;28.42;14.00;;;;;;;-0.37;100.00;100827.94;5044188;28;20044;-54
2021/01/08 04:34:03;;;;;;;32.38;15.07;;;;;;;-0.46;100.00;100837.22;5039011;28;20322;-54
2021/01/08 04:36:30;;;;;;;32.78;16.45;;;;;;;-0.51;100.00;100831.41;5045620;28;20040;-53
2021/01/08 04:38:57;;;;;;;34.17;16.58;;;;;;;-0.52;100.00;100837.59;5044944;28;20041;-53
2021/01/08 04:41:24;;;;;;;31.85;16.23;;;;;;;-0.51;100.00;100831.41;5041574;28;20048;-52
2021/01/08 04:43:52;;;;;;;26.95;14.30;;;;;;;-0.46;100.00;100829.34;5043948;28;20063;-54
2021/01/08 04:46:20;;;;;;;28.60;14.60;;;;;;;-0.42;100.00;100828.22;5043798;28;20049;-55
2021/01/08 04:48:48;;;;;;;24.77;13.32;;;;;;;-0.54;100.00;100831.56;5046261;28;20102;-53
2021/01/08 04:51:15;;;;;;;34.45;16.00;;;;;;;-0.53;100.00;100828.03;5041835;28;20322;-52
2021/01/08 04:53:42;;;;;;;26.15;12.40;;;;;;;-0.42;100.00;100822.97;5039664;28;20040;-54
2021/01/08 04:56:11;;;;;;;36.40;15.18;;;;;;;-0.48;100.00;100823.34;5045337;28;20341;-53
2021/01/08 04:58:39;;;;;;;32.35;14.48;;;;;;;-0.45;100.00;100824.97;5040631;28;20037;-52
2021/01/08 05:01:06;;;;;;;34.70;15.63;;;;;;;-0.53;100.00;100823.59;5043996;28;20036;-54
2021/01/08 05:03:35;;;;;;;31.30;15.90;;;;;;;-0.62;100.00;100826.78;5044622;28;20384;-52
2021/01/08 05:06:02;;;;;;;36.28;16.13;;;;;;;-0.68;100.00;100831.56;5044495;28;20045;-50
2021/01/08 05:08:29;;;;;;;31.05;14.70;;;;;;;-0.62;100.00;100831.22;5045383;28;20041;-53
2021/01/08 05:10:56;;;;;;;52.72;19.55;;;;;;;-0.67;100.00;100833.25;5040890;28;20044;-52
2021/01/08 05:13:33;;;;;;;33.47;15.02;;;;;;;-0.56;100.00;100833.47;5044190;28;20056;-53
2021/01/08 05:16:02;;;;;;;36.92;17.35;;;;;;;-0.58;100.00;100830.06;5044124;28;20273;-52
2021/01/08 05:18:30;;;;;;;32.60;15.95;;;;;;;-0.57;100.00;100835.25;5043509;28;20119;-53
2021/01/08 05:20:59;;;;;;;34.30;15.25;;;;;;;-0.49;100.00;100840.03;5042274;28;20048;-53
2021/01/08 05:23:27;;;;;;;30.25;16.58;;;;;;;-0.56;100.00;100838.69;5047795;28;20455;-52
2021/01/08 05:25:54;;;;;;;32.53;18.13;;;;;;;-0.66;100.00;100829.69;5046802;28;20049;-53
2021/01/08 05:28:22;;;;;;;31.05;15.23;;;;;;;-0.62;100.00;100841.69;5043709;28;22847;-50
2021/01/08 05:30:49;;;;;;;32.95;15.63;;;;;;;-0.75;100.00;100842.41;5041489;28;20411;-52
2021/01/08 05:33:17;;;;;;;32.97;15.85;;;;;;;-0.64;100.00;100843.56;5045034;28;20057;-54
2021/01/08 05:35:44;;;;;;;31.63;16.00;;;;;;;-0.74;100.00;100840.63;5042419;28;20052;-53
2021/01/08 05:38:12;;;;;;;32.78;15.63;;;;;;;-0.86;100.00;100850.06;5042659;28;20048;-51
2021/01/08 05:40:41;;;;;;;34.85;16.00;;;;;;;-0.97;100.00;100845.41;5041460;28;20060;-53
2021/01/08 05:43:09;;;;;;;44.75;18.25;;;;;;;-0.88;100.00;100844.03;5045733;28;20068;-54
2021/01/08 05:45:36;;;;;;;48.50;20.45;;;;;;;-0.80;100.00;100839.19;5042711;28;20049;-53
2021/01/08 05:48:05;;;;;;;40.25;17.63;;;;;;;-0.79;100.00;100848.75;5046739;28;20429;-53
2021/01/08 05:50:33;;;;;;;40.25;17.88;;;;;;;-0.78;100.00;100845.22;5042236;28;20592;-54
2021/01/08 05:53:05;;;;;;;41.72;18.50;;;;;;;-0.73;100.00;100851.03;5047151;28;20041;-53
2021/01/08 05:55:35;;;;;;;37.80;18.88;;;;;;;-0.66;100.00;100853.31;5043683;28;20049;-53
2021/01/08 05:58:17;;;;;;;34.47;15.70;;;;;;;-0.62;100.00;100852.19;5042697;28;20041;-53
2021/01/08 06:00:44;;;;;;;36.33;16.30;;;;;;;-0.70;100.00;100847.38;5042149;28;20051;-53
2021/01/08 06:03:12;;;;;;;35.10;16.85;;;;;;;-0.64;100.00;100840.94;5047233;28;20053;-54
2021/01/08 06:05:40;;;;;;;37.05;18.23;;;;;;;-0.68;100.00;100849.91;5046662;28;20051;-53
2021/01/08 06:08:07;;;;;;;37.88;18.88;;;;;;;-0.57;100.00;100848.38;5046342;28;20506;-54
2021/01/08 06:10:36;;;;;;;38.05;16.73;;;;;;;-0.49;100.00;100853.16;5044867;28;20052;-53
2021/01/08 06:13:03;;;;;;;42.53;19.80;;;;;;;-0.59;100.00;100852.00;5046745;28;21745;-54
2021/01/08 06:15:31;;;;;;;39.22;17.23;;;;;;;-0.58;100.00;100843.19;5051678;28;20044;-53
2021/01/08 06:17:58;;;;;;;39.70;16.33;;;;;;;-0.41;100.00;100850.06;5047550;28;20041;-54
2021/01/08 06:20:29;;;;;;;38.10;19.70;;;;;;;-0.39;100.00;100846.41;5045162;28;20136;-53
2021/01/08 06:22:56;;;;;;;33.75;17.30;;;;;;;-0.34;100.00;100851.41;5050559;28;20048;-54
2021/01/08 06:25:24;;;;;;;32.10;15.73;;;;;;;-0.37;100.00;100841.94;5044162;28;20045;-54
2021/01/08 06:27:54;;;;;;;32.70;15.80;;;;;;;-0.36;100.00;100843.59;5043772;28;20294;-51
2021/01/08 06:30:26;;;;;;;36.58;16.73;;;;;;;-0.43;100.00;100849.31;5043099;28;20049;-53
2021/01/08 06:33:02;;;;;;;38.13;17.35;;;;;;;-0.39;100.00;100851.66;5044485;28;20318;-53
2021/01/08 06:35:31;;;;;;;37.95;17.27;;;;;;;-0.48;100.00;100846.97;5042777;28;20348;-52
2021/01/08 06:38:00;;;;;;;39.63;16.08;;;;;;;-0.37;100.00;100855.06;5047448;28;20044;-50
2021/01/08 06:40:41;;;;;;;36.95;17.35;;;;;;;-0.33;100.00;100839.13;5042631;28;20453;-54
2021/01/08 06:43:18;;;;;;;39.72;18.33;;;;;;;-0.25;100.00;100855.25;5041499;28;20041;-52
2021/01/08 06:45:53;;;;;;;35.30;16.20;;;;;;;-0.25;100.00;100858.72;5045621;28;20056;-53
2021/01/08 06:48:23;;;;;;;40.80;18.45;;;;;;;-0.22;100.00;100863.78;5041506;28;20056;-51
2021/01/08 06:50:53;;;;;;;39.88;16.30;;;;;;;-0.13;100.00;100857.13;5044200;28;20053;-54
2021/01/08 06:53:25;;;;;;;31.80;15.05;;;;;;;-0.18;100.00;100864.44;5046140;28;20045;-54
2021/01/08 06:55:54;;;;;;;34.75;16.77;;;;;;;-0.12;100.00;100871.09;5043186;28;20463;-53
2021/01/08 06:58:21;;;;;;;30.77;15.82;;;;;;;0.01;100.00;100873.81;5042245;28;20281;-52
2021/01/08 07:00:51;;;;;;;38.05;17.77;;;;;;;-0.07;100.00;100869.03;5039761;28;20053;-54
2021/01/08 07:03:23;;;;;;;43.75;17.17;;;;;;;-0.04;100.00;100866.25;5042584;28;20041;-54
2021/01/08 07:05:50;;;;;;;35.47;17.23;;;;;;;-0.05;100.00;100878.50;5040812;28;20045;-52
2021/01/08 07:08:17;;;;;;;42.40;19.45;;;;;;;-0.02;100.00;100866.97;5046051;28;21040;-54
2021/01/08 07:10:51;;;;;;;33.97;16.40;;;;;;;-0.04;100.00;100867.06;5042740;28;20053;-51
2021/01/08 07:13:29;;;;;;;42.45;18.52;;;;;;;0.00;100.00;100873.00;5046019;28;20068;-53
2021/01/08 07:15:56;;;;;;;33.35;15.73;;;;;;;0.07;100.00;100869.06;5045312;28;20048;-54
2021/01/08 07:18:26;;;;;;;39.08;18.33;;;;;;;0.05;100.00;100875.34;5021809;28;639685;-52
2021/01/08 07:20:53;;;;;;;38.40;17.58;;;;;;;0.08;100.00;100880.38;5045096;28;20064;-51
2021/01/08 07:23:41;;;;;;;37.70;19.48;;;;;;;0.11;100.00;100880.19;5042932;28;20041;-54
2021/01/08 07:26:11;;;;;;;42.00;17.65;;;;;;;0.15;100.00;100882.53;5043109;28;20033;-53
2021/01/08 07:28:50;;;;;;;30.25;16.33;;;;;;;0.11;100.00;100878.41;5045452;28;20060;-52
2021/01/08 07:31:30;;;;;;;33.63;17.02;;;;;;;0.12;100.00;100880.09;5042183;28;20044;-53
2021/01/08 07:33:58;;;;;;;28.98;14.75;;;;;;;0.10;100.00;100886.38;5043387;28;20051;-54
2021/01/08 07:36:26;;;;;;;35.60;15.43;;;;;;;0.08;100.00;100886.47;5044653;28;20045;-53
2021/01/08 07:38:53;;;;;;;31.40;15.70;;;;;;;0.12;100.00;100893.22;5046752;28;20354;-55
2021/01/08 07:41:34;;;;;;;34.83;15.93;;;;;;;0.05;100.00;100899.78;5040314;28;20098;-53
2021/01/08 07:44:02;;;;;;;31.95;13.50;;;;;;;0.21;100.00;100902.31;5047296;28;20057;-51
2021/01/08 07:46:30;;;;;;;35.03;17.65;;;;;;;0.16;100.00;100912.28;5046264;28;20044;-54
2021/01/08 07:48:59;;;;;;;31.52;15.57;;;;;;;0.20;100.00;100910.31;5044651;28;20045;-53
2021/01/08 07:51:46;;;;;;;36.80;16.38;;;;;;;0.19;100.00;100919.97;5044357;28;20408;-52
2021/01/08 07:54:13;;;;;;;;;;;;;;;0.27;100.00;100916.88;5042580;28;20139;-52
2021/01/08 07:57:07;;;;;;;29.23;13.43;;;;;;;0.17;100.00;100921.84;5044360;28;19984;-52
2021/01/08 07:59:34;;;;;;;32.33;14.10;;;;;;;0.19;100.00;100927.84;5044255;28;20040;-53
2021/01/08 08:02:01;;;;;;;27.60;13.48;;;;;;;0.18;100.00;100934.03;5041631;28;20048;-51
2021/01/08 08:04:28;;;;;;;33.50;14.98;;;;;;;0.21;100.00;100922.50;5042920;28;20126;-54
2021/01/08 08:06:58;;;;;;;27.08;14.02;;;;;;;0.24;100.00;100933.69;5042048;28;20265;-53
2021/01/08 08:09:25;;;;;;;28.10;13.40;;;;;;;0.36;100.00;100936.50;5046177;28;20041;-53
2021/01/08 08:11:52;;;;;;;26.60;12.90;;;;;;;0.39;100.00;100936.31;5041780;28;20057;-55
2021/01/08 08:14:20;;;;;;;30.73;14.48;;;;;;;0.33;100.00;100941.00;5045713;28;20051;-53
2021/01/08 08:16:47;;;;;;;27.45;13.13;;;;;;;0.37;100.00;100948.69;5043663;28;20852;-53
2021/01/08 08:19:15;;;;;;;25.88;13.50;;;;;;;0.41;100.00;100944.94;5042897;28;20321;-53
2021/01/08 08:21:47;;;;;;;27.95;13.30;;;;;;;0.42;100.00;100949.25;5037071;28;20045;-54
2021/01/08 08:24:16;;;;;;;39.70;14.98;;;;;;;0.40;100.00;100953.75;5042084;28;20135;-59
2021/01/08 08:26:48;;;;;;;25.30;12.98;;;;;;;0.38;100.00;100960.88;5039447;28;20131;-52
2021/01/08 08:29:16;;;;;;;27.27;13.80;;;;;;;0.37;100.00;100959.19;5044370;28;20037;-53
2021/01/08 08:31:45;;;;;;;27.98;13.57;;;;;;;0.37;100.00;100959.19;5043021;28;20041;-55
2021/01/08 08:34:13;;;;;;;25.27;13.52;;;;;;;0.30;100.00;100966.63;5045429;28;20102;-54
2021/01/08 08:36:40;;;;;;;26.10;13.43;;;;;;;0.19;100.00;100962.00;5041574;28;20041;-54
2021/01/08 08:39:09;;;;;;;26.48;12.63;;;;;;;0.25;100.00;100966.88;5042644;28;20048;-53
2021/01/08 08:41:37;;;;;;;24.65;13.23;;;;;;;0.23;100.00;100967.91;5042038;28;20099;-54
2021/01/08 08:44:07;;;;;;;26.38;11.70;;;;;;;0.23;100.00;100963.50;5045659;28;20041;-53
2021/01/08 08:46:45;;;;;;;21.25;12.13;;;;;;;0.22;100.00;100966.22;5040048;28;20045;-52
2021/01/08 08:49:12;;;;;;;25.65;14.07;;;;;;;0.23;100.00;100974.03;5044445;28;20044;-53
2021/01/08 08:51:44;;;;;;;26.10;12.60;;;;;;;0.14;100.00;100970.16;5039605;28;20052;-54
2021/01/08 08:54:11;;;;;;;30.52;14.10;;;;;;;0.20;100.00;100974.22;5040157;28;20037;-53
2021/01/08 08:56:47;;;;;;;26.13;13.40;;;;;;;0.27;100.00;100978.16;5043341;28;20040;-53
2021/01/08 08:59:14;;;;;;;29.17;11.90;;;;;;;0.37;100.00;100980.22;5041663;28;20064;-53
2021/01/08 09:01:42;;;;;;;27.88;12.90;;;;;;;0.39;100.00;100986.22;5043265;28;20079;-52
2021/01/08 09:04:10;;;;;;;23.75;11.50;;;;;;;0.43;100.00;100985.09;5039961;28;20036;-53
2021/01/08 09:06:40;;;;;;;31.02;12.95;;;;;;;0.51;100.00;100990.72;5040910;28;20329;-53
2021/01/08 09:09:14;;;;;;;25.63;12.77;;;;;;;0.53;100.00;100986.22;5045082;28;20281;-53
2021/01/08 09:11:49;;;;;;;25.60;12.35;;;;;;;0.63;99.98;100982.09;5040377;28;20037;-53
2021/01/08 09:14:17;;;;;;;;;;;;;;;0.57;100.00;100979.84;5040655;28;20425;-53
2021/01/08 09:16:47;;;;;;;24.27;12.02;;;;;;;0.53;99.91;100996.75;5041083;28;19929;-54
2021/01/08 09:19:20;;;;;;;27.55;12.88;;;;;;;0.58;99.63;100989.44;5042620;28;20124;-51
2021/01/08 09:21:48;;;;;;;22.00;12.48;;;;;;;0.65;99.80;100984.63;5041019;28;20379;-52
2021/01/08 09:24:21;;;;;;;26.75;12.02;;;;;;;0.65;99.67;100985.47;5040421;28;20045;-53
2021/01/08 09:26:48;;;;;;;29.52;14.02;;;;;;;0.61;99.88;100988.38;5039983;28;20045;-53
2021/01/08 09:29:28;;;;;;;27.50;13.73;;;;;;;0.56;99.51;100985.19;5044664;28;20052;-53
2021/01/08 09:31:55;;;;;;;22.50;12.95;;;;;;;0.59;99.76;100990.25;5039875;28;20034;-52
2021/01/08 09:34:24;;;;;;;22.60;13.07;;;;;;;0.60;99.44;100994.59;5041430;28;20467;-51
2021/01/08 09:36:52;;;;;;;23.38;11.65;;;;;;;0.85;98.97;100991.25;5035065;28;20049;-51
2021/01/08 09:39:21;;;;;;;19.08;11.90;;;;;;;0.83;98.59;100988.72;5043552;28;20041;-53
2021/01/08 09:41:56;;;;;;;25.60;12.13;;;;;;;0.94;98.20;100995.97;5034048;28;20052;-51
2021/01/08 09:44:31;;;;;;;20.08;11.13;;;;;;;0.83;97.41;100993.16;5035897;28;20049;-52
2021/01/08 09:46:59;;;;;;;21.40;12.07;;;;;;;0.92;97.65;100997.84;5035136;28;20258;-53
2021/01/08 09:49:38;;;;;;;28.77;11.98;;;;;;;0.82;97.60;100996.72;5041839;28;20572;-52
2021/01/08 09:52:06;;;;;;;23.80;12.43;;;;;;;0.79;97.83;101003.00;5040603;28;20044;-51
2021/01/08 09:54:42;;;;;;;23.88;13.57;;;;;;;0.74;97.97;101005.09;5039073;28;20047;-59
2021/01/08 09:57:09;;;;;;;25.55;11.52;;;;;;;0.83;98.09;101001.03;5042150;28;20041;-53
2021/01/08 09:59:36;;;;;;;26.88;14.00;;;;;;;0.92;97.44;101008.38;5041386;28;20059;-54
2021/01/08 10:02:07;;;;;;;22.55;12.30;;;;;;;0.84;97.71;101002.75;5041989;28;20056;-52
2021/01/08 10:04:36;;;;;;;28.40;12.18;;;;;;;0.90;97.75;101012.88;5038922;28;20064;-53
2021/01/08 10:07:04;;;;;;;29.13;13.02;;;;;;;0.94;97.43;101011.75;5041490;28;20367;-49
2021/01/08 10:09:55;;;;;;;21.25;11.65;;;;;;;1.03;97.74;101008.53;5042100;28;20466;-51
2021/01/08 10:12:25;;;;;;;24.95;11.57;;;;;;;1.07;97.57;101014.44;5021566;28;20136;-54
2021/01/08 10:14:59;;;;;;;20.23;10.75;;;;;;;1.24;96.72;101018.63;5039516;28;20211;-54
2021/01/08 10:17:26;;;;;;;26.35;12.45;;;;;;;1.27;96.42;101012.34;5043715;28;20356;-54
2021/01/08 10:19:56;;;;;;;22.25;11.88;;;;;;;1.24;96.15;101008.09;5040708;28;20514;-53
2021/01/08 10:22:24;;;;;;;20.80;11.95;;;;;;;1.12;96.89;101015.00;5037553;28;20052;-51
2021/01/08 10:24:51;;;;;;;20.75;11.50;;;;;;;1.30;96.65;101012.97;5037325;28;20051;-53
2021/01/08 10:27:23;;;;;;;23.02;10.55;;;;;;;1.26;95.87;101011.50;5039118;28;20048;-52
2021/01/08 10:29:50;;;;;;;24.67;12.20;;;;;;;1.30;96.06;101018.22;5043314;28;20036;-53
2021/01/08 10:32:17;;;;;;;23.38;13.18;;;;;;;1.42;95.58;101015.75;5039305;28;20045;-51
2021/01/08 10:34:46;;;;;;;20.60;10.90;;;;;;;1.53;95.87;101014.13;5043056;28;20384;-52
2021/01/08 10:37:18;;;;;;;20.45;10.68;;;;;;;1.78;94.86;101014.31;5037891;28;20049;-51
2021/01/08 10:39:45;;;;;;;31.63;10.95;;;;;;;1.97;93.45;101009.50;5040244;28;20049;-51
2021/01/08 10:42:15;;;;;;;19.42;10.70;;;;;;;2.13;93.94;101011.13;5041782;28;20436;-52
2021/01/08 10:44:42;;;;;;;26.08;10.70;;;;;;;2.53;91.88;101005.75;5037088;28;20067;-51
2021/01/08 10:47:09;;;;;;;19.40;11.38;;;;;;;2.70;90.45;101005.41;5038062;28;20559;-54
2021/01/08 10:49:54;;;;;;;19.67;10.60;;;;;;;3.02;89.87;101004.06;5044254;28;20037;-52
2021/01/08 10:52:22;;;;;;;42.20;21.00;;;;;;;2.15;91.48;101006.59;5044933;28;20049;-52
2021/01/08 10:54:49;;;;;;;21.70;10.30;;;;;;;2.55;91.10;101011.75;5045540;28;20459;-52
2021/01/08 10:57:16;;;;;;;20.55;9.70;;;;;;;2.67;90.70;101007.44;5047920;28;20045;-52
2021/01/08 10:59:43;;;;;;;24.50;12.98;;;;;;;2.54;90.40;101010.09;5042740;28;20069;-52
2021/01/08 11:02:10;;;;;;;23.88;12.95;;;;;;;2.13;91.96;101014.59;5045634;28;20052;-54
2021/01/08 11:04:40;;;;;;;27.70;11.45;;;;;;;2.49;91.55;101002.47;5044551;28;20045;-52
2021/01/08 11:07:07;;;;;;;19.50;11.63;;;;;;;2.43;92.50;101004.72;5045962;28;20047;-54
2021/01/08 11:09:36;;;;;;;17.70;10.57;;;;;;;2.60;92.04;100999.09;5045817;28;20043;-52
2021/01/08 11:12:09;;;;;;;23.58;12.05;;;;;;;2.29;92.28;101006.47;5041261;28;20049;-53
2021/01/08 11:14:36;;;;;;;22.35;10.57;;;;;;;2.26;92.25;101014.59;5047987;28;20345;-54
2021/01/08 11:17:03;;;;;;;19.55;11.32;;;;;;;2.36;92.67;101009.53;5046604;28;20045;-55
2021/01/08 11:19:30;;;;;;;21.33;11.57;;;;;;;2.45;92.90;101010.72;5049857;28;20284;-54